sensor_id;sensor_type;location;lat;lon;timestamp;P1;durP1;ratioP1;P2;durP2;ratioP2
14907;SDS011;7545;52.092;7.006;2023-09-12T00:00:48;36.72;;;21.92;;
14907;SDS011;7545;52.092;7.006;2023-09-12T00:03:14;41.20;;;23.73;;
14907;SDS011;7545;52.092;7.006;2023-09-12T00:05:40;33.83;;;21.45;;
14907;SDS011;7545;52.092;7.006;2023-09-12T00:08:05;29.08;;;19.70;;
14907;SDS011;7545;52.092;7.006;2023-09-12T00:10:31;30.83;;;20.65;;
14907;SDS011;7545;52.092;7.006;2023-09-12T00:12:57;29.13;;;20.52;;
14907;SDS011;7545;52.092;7.006;2023-09-12T00:15:27;25.33;;;18.70;;
14907;SDS011;7545;52.092;7.006;2023-09-12T00:17:53;24.33;;;17.90;;
14907;SDS011;7545;52.092;7.006;2023-09-12T00:20:18;26.25;;;15.65;;
14907;SDS011;7545;52.092;7.006;2023-09-12T00:22:44;17.85;;;13.52;;
14907;SDS011;7545;52.092;7.006;2023-09-12T00:25:10;19.25;;;13.27;;
14907;SDS011;7545;52.092;7.006;2023-09-12T00:27:36;22.42;;;14.43;;
14907;SDS011;7545;52.092;7.006;2023-09-12T00:30:01;23.10;;;14.40;;
14907;SDS011;7545;52.092;7.006;2023-09-12T00:32:27;21.10;;;14.65;;
14907;SDS011;7545;52.092;7.006;2023-09-12T00:34:53;22.45;;;13.73;;
14907;SDS011;7545;52.092;7.006;2023-09-12T00:37:19;20.38;;;14.18;;
14907;SDS011;7545;52.092;7.006;2023-09-12T00:39:47;19.98;;;14.15;;
14907;SDS011;7545;52.092;7.006;2023-09-12T00:42:13;23.50;;;15.52;;
14907;SDS011;7545;52.092;7.006;2023-09-12T00:44:38;22.25;;;15.52;;
14907;SDS011;7545;52.092;7.006;2023-09-12T00:47:04;22.25;;;15.30;;
14907;SDS011;7545;52.092;7.006;2023-09-12T00:49:31;27.23;;;17.20;;
14907;SDS011;7545;52.092;7.006;2023-09-12T00:51:57;25.52;;;18.20;;
14907;SDS011;7545;52.092;7.006;2023-09-12T00:54:24;24.02;;;17.00;;
14907;SDS011;7545;52.092;7.006;2023-09-12T00:56:50;24.15;;;16.80;;
14907;SDS011;7545;52.092;7.006;2023-09-12T00:59:15;24.20;;;15.73;;
14907;SDS011;7545;52.092;7.006;2023-09-12T01:01:43;22.42;;;16.10;;
14907;SDS011;7545;52.092;7.006;2023-09-12T01:04:09;22.08;;;16.13;;
14907;SDS011;7545;52.092;7.006;2023-09-12T01:06:35;19.10;;;14.02;;
14907;SDS011;7545;52.092;7.006;2023-09-12T01:09:03;25.20;;;14.93;;
14907;SDS011;7545;52.092;7.006;2023-09-12T01:11:29;22.58;;;15.43;;
14907;SDS011;7545;52.092;7.006;2023-09-12T01:13:56;23.63;;;14.93;;
14907;SDS011;7545;52.092;7.006;2023-09-12T01:16:21;20.35;;;13.52;;
14907;SDS011;7545;52.092;7.006;2023-09-12T01:18:47;19.48;;;13.93;;
14907;SDS011;7545;52.092;7.006;2023-09-12T01:29:30;18.98;;;14.13;;
14907;SDS011;7545;52.092;7.006;2023-09-12T01:31:56;20.95;;;14.00;;
14907;SDS011;7545;52.092;7.006;2023-09-12T01:34:23;19.98;;;13.90;;
14907;SDS011;7545;52.092;7.006;2023-09-12T01:36:49;19.48;;;13.50;;
14907;SDS011;7545;52.092;7.006;2023-09-12T01:39:15;22.27;;;13.98;;
14907;SDS011;7545;52.092;7.006;2023-09-12T01:41:40;18.65;;;13.95;;
14907;SDS011;7545;52.092;7.006;2023-09-12T01:44:10;20.10;;;13.48;;
14907;SDS011;7545;52.092;7.006;2023-09-12T01:46:38;18.23;;;13.00;;
14907;SDS011;7545;52.092;7.006;2023-09-12T01:49:04;19.48;;;12.52;;
14907;SDS011;7545;52.092;7.006;2023-09-12T01:51:32;17.50;;;12.80;;
14907;SDS011;7545;52.092;7.006;2023-09-12T01:53:58;15.30;;;11.80;;
14907;SDS011;7545;52.092;7.006;2023-09-12T01:56:25;17.10;;;12.25;;
14907;SDS011;7545;52.092;7.006;2023-09-12T01:58:51;19.05;;;12.30;;
14907;SDS011;7545;52.092;7.006;2023-09-12T02:01:17;17.63;;;12.57;;
14907;SDS011;7545;52.092;7.006;2023-09-12T02:03:42;16.17;;;12.18;;
14907;SDS011;7545;52.092;7.006;2023-09-12T02:06:08;18.63;;;13.07;;
14907;SDS011;7545;52.092;7.006;2023-09-12T02:08:33;18.88;;;13.50;;
14907;SDS011;7545;52.092;7.006;2023-09-12T02:10:59;17.85;;;12.50;;
14907;SDS011;7545;52.092;7.006;2023-09-12T02:13:24;19.58;;;13.18;;
14907;SDS011;7545;52.092;7.006;2023-09-12T02:15:50;18.08;;;11.82;;
14907;SDS011;7545;52.092;7.006;2023-09-12T02:18:24;17.63;;;11.57;;
14907;SDS011;7545;52.092;7.006;2023-09-12T02:20:49;16.15;;;12.07;;
14907;SDS011;7545;52.092;7.006;2023-09-12T02:23:15;18.02;;;11.50;;
14907;SDS011;7545;52.092;7.006;2023-09-12T02:25:40;16.15;;;11.35;;
14907;SDS011;7545;52.092;7.006;2023-09-12T02:28:06;16.45;;;11.50;;
14907;SDS011;7545;52.092;7.006;2023-09-12T02:30:31;19.05;;;12.35;;
14907;SDS011;7545;52.092;7.006;2023-09-12T02:33:00;14.90;;;11.73;;
14907;SDS011;7545;52.092;7.006;2023-09-12T02:35:27;14.85;;;10.85;;
14907;SDS011;7545;52.092;7.006;2023-09-12T02:37:53;16.70;;;11.57;;
14907;SDS011;7545;52.092;7.006;2023-09-12T02:40:19;16.73;;;10.98;;
14907;SDS011;7545;52.092;7.006;2023-09-12T02:42:44;17.60;;;11.10;;
14907;SDS011;7545;52.092;7.006;2023-09-12T02:45:10;15.43;;;10.48;;
14907;SDS011;7545;52.092;7.006;2023-09-12T02:47:35;14.48;;;10.48;;
14907;SDS011;7545;52.092;7.006;2023-09-12T02:50:01;15.00;;;10.30;;
14907;SDS011;7545;52.092;7.006;2023-09-12T02:52:27;13.60;;;10.15;;
14907;SDS011;7545;52.092;7.006;2023-09-12T02:54:52;13.68;;;10.40;;
14907;SDS011;7545;52.092;7.006;2023-09-12T02:57:18;16.17;;;9.48;;
14907;SDS011;7545;52.092;7.006;2023-09-12T02:59:44;14.88;;;10.45;;
14907;SDS011;7545;52.092;7.006;2023-09-12T03:02:09;16.55;;;10.07;;
14907;SDS011;7545;52.092;7.006;2023-09-12T03:04:35;13.52;;;9.50;;
14907;SDS011;7545;52.092;7.006;2023-09-12T03:07:01;13.38;;;9.18;;
14907;SDS011;7545;52.092;7.006;2023-09-12T03:09:27;13.48;;;9.48;;
14907;SDS011;7545;52.092;7.006;2023-09-12T03:11:52;16.00;;;9.07;;
14907;SDS011;7545;52.092;7.006;2023-09-12T03:14:18;14.90;;;9.57;;
14907;SDS011;7545;52.092;7.006;2023-09-12T03:16:44;11.65;;;8.43;;
14907;SDS011;7545;52.092;7.006;2023-09-12T03:19:09;12.45;;;9.18;;
14907;SDS011;7545;52.092;7.006;2023-09-12T03:21:35;10.68;;;9.27;;
14907;SDS011;7545;52.092;7.006;2023-09-12T03:24:00;11.35;;;8.90;;
14907;SDS011;7545;52.092;7.006;2023-09-12T03:26:26;13.82;;;8.50;;
14907;SDS011;7545;52.092;7.006;2023-09-12T03:28:51;13.38;;;9.13;;
14907;SDS011;7545;52.092;7.006;2023-09-12T03:31:17;12.60;;;8.45;;
14907;SDS011;7545;52.092;7.006;2023-09-12T03:33:44;10.15;;;8.23;;
14907;SDS011;7545;52.092;7.006;2023-09-12T03:36:14;12.30;;;8.63;;
14907;SDS011;7545;52.092;7.006;2023-09-12T03:38:40;12.77;;;8.82;;
14907;SDS011;7545;52.092;7.006;2023-09-12T03:41:06;11.85;;;8.10;;
14907;SDS011;7545;52.092;7.006;2023-09-12T03:43:32;15.98;;;8.45;;
14907;SDS011;7545;52.092;7.006;2023-09-12T03:45:58;12.35;;;7.97;;
14907;SDS011;7545;52.092;7.006;2023-09-12T03:48:24;9.80;;;7.22;;
14907;SDS011;7545;52.092;7.006;2023-09-12T03:50:50;8.45;;;6.93;;
14907;SDS011;7545;52.092;7.006;2023-09-12T03:53:15;10.88;;;8.57;;
14907;SDS011;7545;52.092;7.006;2023-09-12T03:55:41;10.68;;;7.00;;
14907;SDS011;7545;52.092;7.006;2023-09-12T03:58:07;8.05;;;6.15;;
14907;SDS011;7545;52.092;7.006;2023-09-12T04:00:33;6.43;;;5.65;;
14907;SDS011;7545;52.092;7.006;2023-09-12T04:02:58;9.98;;;6.00;;
14907;SDS011;7545;52.092;7.006;2023-09-12T04:05:25;6.70;;;5.80;;
14907;SDS011;7545;52.092;7.006;2023-09-12T04:07:51;7.65;;;5.93;;
14907;SDS011;7545;52.092;7.006;2023-09-12T04:10:17;9.15;;;6.13;;
14907;SDS011;7545;52.092;7.006;2023-09-12T04:12:46;10.20;;;6.65;;
14907;SDS011;7545;52.092;7.006;2023-09-12T04:15:11;8.38;;;6.53;;
14907;SDS011;7545;52.092;7.006;2023-09-12T04:17:37;11.30;;;6.03;;
14907;SDS011;7545;52.092;7.006;2023-09-12T04:20:03;7.22;;;6.13;;
14907;SDS011;7545;52.092;7.006;2023-09-12T04:22:29;8.27;;;6.47;;
14907;SDS011;7545;52.092;7.006;2023-09-12T04:24:55;9.60;;;7.10;;
14907;SDS011;7545;52.092;7.006;2023-09-12T04:27:21;8.80;;;6.10;;
14907;SDS011;7545;52.092;7.006;2023-09-12T04:29:46;8.35;;;6.47;;
14907;SDS011;7545;52.092;7.006;2023-09-12T04:32:12;9.15;;;6.97;;
14907;SDS011;7545;52.092;7.006;2023-09-12T04:34:38;9.43;;;6.47;;
14907;SDS011;7545;52.092;7.006;2023-09-12T04:37:03;9.95;;;6.88;;
14907;SDS011;7545;52.092;7.006;2023-09-12T04:39:30;9.57;;;6.82;;
14907;SDS011;7545;52.092;7.006;2023-09-12T04:41:56;9.05;;;7.68;;
14907;SDS011;7545;52.092;7.006;2023-09-12T04:44:22;10.02;;;7.07;;
14907;SDS011;7545;52.092;7.006;2023-09-12T04:46:47;10.70;;;6.40;;
14907;SDS011;7545;52.092;7.006;2023-09-12T04:49:13;9.40;;;7.07;;
14907;SDS011;7545;52.092;7.006;2023-09-12T04:51:39;7.90;;;6.43;;
14907;SDS011;7545;52.092;7.006;2023-09-12T04:54:04;9.27;;;6.80;;
14907;SDS011;7545;52.092;7.006;2023-09-12T04:56:30;11.52;;;7.85;;
14907;SDS011;7545;52.092;7.006;2023-09-12T04:58:56;10.65;;;6.95;;
14907;SDS011;7545;52.092;7.006;2023-09-12T05:01:22;9.85;;;6.53;;
14907;SDS011;7545;52.092;7.006;2023-09-12T05:03:47;7.57;;;6.35;;
14907;SDS011;7545;52.092;7.006;2023-09-12T05:06:13;10.50;;;6.70;;
14907;SDS011;7545;52.092;7.006;2023-09-12T05:08:39;7.53;;;6.30;;
14907;SDS011;7545;52.092;7.006;2023-09-12T05:11:04;10.52;;;7.15;;
14907;SDS011;7545;52.092;7.006;2023-09-12T05:13:30;9.80;;;7.10;;
14907;SDS011;7545;52.092;7.006;2023-09-12T05:15:56;9.18;;;7.18;;
14907;SDS011;7545;52.092;7.006;2023-09-12T05:18:21;8.25;;;6.95;;
14907;SDS011;7545;52.092;7.006;2023-09-12T05:20:47;13.70;;;7.38;;
14907;SDS011;7545;52.092;7.006;2023-09-12T05:23:16;14.77;;;7.13;;
14907;SDS011;7545;52.092;7.006;2023-09-12T05:25:42;8.52;;;6.55;;
14907;SDS011;7545;52.092;7.006;2023-09-12T05:28:07;8.80;;;7.10;;
14907;SDS011;7545;52.092;7.006;2023-09-12T05:30:33;9.50;;;7.00;;
14907;SDS011;7545;52.092;7.006;2023-09-12T05:32:59;15.10;;;7.75;;
14907;SDS011;7545;52.092;7.006;2023-09-12T05:35:25;9.48;;;7.35;;
14907;SDS011;7545;52.092;7.006;2023-09-12T05:37:50;8.75;;;7.57;;
14907;SDS011;7545;52.092;7.006;2023-09-12T05:40:17;9.18;;;7.78;;
14907;SDS011;7545;52.092;7.006;2023-09-12T05:42:43;9.88;;;7.72;;
14907;SDS011;7545;52.092;7.006;2023-09-12T05:45:09;13.95;;;7.93;;
14907;SDS011;7545;52.092;7.006;2023-09-12T05:47:35;11.18;;;7.75;;
14907;SDS011;7545;52.092;7.006;2023-09-12T05:50:00;8.15;;;6.90;;
14907;SDS011;7545;52.092;7.006;2023-09-12T05:52:29;9.13;;;7.22;;
14907;SDS011;7545;52.092;7.006;2023-09-12T05:54:55;10.52;;;7.03;;
14907;SDS011;7545;52.092;7.006;2023-09-12T05:57:21;9.45;;;7.70;;
14907;SDS011;7545;52.092;7.006;2023-09-12T05:59:47;9.30;;;7.20;;
14907;SDS011;7545;52.092;7.006;2023-09-12T06:02:12;8.77;;;7.38;;
14907;SDS011;7545;52.092;7.006;2023-09-12T06:04:38;9.70;;;7.07;;
14907;SDS011;7545;52.092;7.006;2023-09-12T06:07:04;9.52;;;7.22;;
14907;SDS011;7545;52.092;7.006;2023-09-12T06:09:29;11.55;;;7.90;;
14907;SDS011;7545;52.092;7.006;2023-09-12T06:11:55;12.30;;;7.53;;
14907;SDS011;7545;52.092;7.006;2023-09-12T06:14:21;12.25;;;8.40;;
14907;SDS011;7545;52.092;7.006;2023-09-12T06:16:47;14.02;;;8.25;;
14907;SDS011;7545;52.092;7.006;2023-09-12T06:19:13;9.77;;;8.15;;
14907;SDS011;7545;52.092;7.006;2023-09-12T06:21:44;12.10;;;8.00;;
14907;SDS011;7545;52.092;7.006;2023-09-12T06:24:11;9.77;;;8.27;;
14907;SDS011;7545;52.092;7.006;2023-09-12T06:26:37;12.20;;;9.15;;
14907;SDS011;7545;52.092;7.006;2023-09-12T06:29:03;11.18;;;8.80;;
14907;SDS011;7545;52.092;7.006;2023-09-12T06:31:29;13.18;;;9.25;;
14907;SDS011;7545;52.092;7.006;2023-09-12T06:33:55;14.60;;;8.70;;
14907;SDS011;7545;52.092;7.006;2023-09-12T06:36:20;15.15;;;10.65;;
14907;SDS011;7545;52.092;7.006;2023-09-12T06:38:46;14.85;;;9.30;;
14907;SDS011;7545;52.092;7.006;2023-09-12T06:41:12;12.43;;;8.52;;
14907;SDS011;7545;52.092;7.006;2023-09-12T06:43:38;11.32;;;9.27;;
14907;SDS011;7545;52.092;7.006;2023-09-12T06:46:03;13.18;;;9.43;;
14907;SDS011;7545;52.092;7.006;2023-09-12T06:48:29;12.35;;;10.20;;
14907;SDS011;7545;52.092;7.006;2023-09-12T06:50:55;15.93;;;10.55;;
14907;SDS011;7545;52.092;7.006;2023-09-12T06:53:20;14.95;;;9.52;;
14907;SDS011;7545;52.092;7.006;2023-09-12T06:55:46;12.45;;;10.77;;
14907;SDS011;7545;52.092;7.006;2023-09-12T06:58:11;13.73;;;10.70;;
14907;SDS011;7545;52.092;7.006;2023-09-12T07:00:37;12.15;;;9.88;;
14907;SDS011;7545;52.092;7.006;2023-09-12T07:03:03;16.27;;;11.70;;
14907;SDS011;7545;52.092;7.006;2023-09-12T07:05:29;14.98;;;11.30;;
14907;SDS011;7545;52.092;7.006;2023-09-12T07:07:54;18.52;;;12.07;;
14907;SDS011;7545;52.092;7.006;2023-09-12T07:10:20;18.50;;;11.77;;
14907;SDS011;7545;52.092;7.006;2023-09-12T07:12:46;13.93;;;11.38;;
14907;SDS011;7545;52.092;7.006;2023-09-12T07:15:11;17.50;;;12.20;;
14907;SDS011;7545;52.092;7.006;2023-09-12T07:17:37;17.50;;;12.63;;
14907;SDS011;7545;52.092;7.006;2023-09-12T07:20:04;16.73;;;12.32;;
14907;SDS011;7545;52.092;7.006;2023-09-12T07:22:30;16.65;;;12.45;;
14907;SDS011;7545;52.092;7.006;2023-09-12T07:24:55;17.35;;;13.30;;
14907;SDS011;7545;52.092;7.006;2023-09-12T07:27:25;18.30;;;12.77;;
14907;SDS011;7545;52.092;7.006;2023-09-12T07:29:51;17.23;;;13.10;;
14907;SDS011;7545;52.092;7.006;2023-09-12T07:32:16;20.27;;;12.50;;
14907;SDS011;7545;52.092;7.006;2023-09-12T07:34:42;17.55;;;12.60;;
14907;SDS011;7545;52.092;7.006;2023-09-12T07:37:13;19.70;;;13.38;;
14907;SDS011;7545;52.092;7.006;2023-09-12T07:39:39;14.77;;;11.25;;
14907;SDS011;7545;52.092;7.006;2023-09-12T07:42:04;16.38;;;12.07;;
14907;SDS011;7545;52.092;7.006;2023-09-12T07:44:30;18.55;;;12.25;;
14907;SDS011;7545;52.092;7.006;2023-09-12T07:46:55;18.58;;;12.40;;
14907;SDS011;7545;52.092;7.006;2023-09-12T07:49:21;18.42;;;12.10;;
14907;SDS011;7545;52.092;7.006;2023-09-12T07:51:47;17.33;;;12.05;;
14907;SDS011;7545;52.092;7.006;2023-09-12T07:54:12;18.63;;;12.07;;
14907;SDS011;7545;52.092;7.006;2023-09-12T07:56:38;16.70;;;11.88;;
14907;SDS011;7545;52.092;7.006;2023-09-12T07:59:04;14.55;;;11.25;;
14907;SDS011;7545;52.092;7.006;2023-09-12T08:01:29;17.77;;;12.35;;
14907;SDS011;7545;52.092;7.006;2023-09-12T08:03:55;14.20;;;11.02;;
14907;SDS011;7545;52.092;7.006;2023-09-12T08:06:21;19.08;;;13.13;;
14907;SDS011;7545;52.092;7.006;2023-09-12T08:08:48;17.08;;;12.52;;
14907;SDS011;7545;52.092;7.006;2023-09-12T08:11:14;17.42;;;12.82;;
14907;SDS011;7545;52.092;7.006;2023-09-12T08:13:40;15.68;;;12.18;;
14907;SDS011;7545;52.092;7.006;2023-09-12T08:16:05;16.67;;;11.82;;
14907;SDS011;7545;52.092;7.006;2023-09-12T08:18:31;17.40;;;11.85;;
14907;SDS011;7545;52.092;7.006;2023-09-12T08:20:57;16.65;;;12.30;;
14907;SDS011;7545;52.092;7.006;2023-09-12T08:23:22;21.02;;;12.68;;
14907;SDS011;7545;52.092;7.006;2023-09-12T08:25:48;17.55;;;12.45;;
14907;SDS011;7545;52.092;7.006;2023-09-12T08:28:14;17.98;;;13.30;;
14907;SDS011;7545;52.092;7.006;2023-09-12T08:30:39;17.25;;;12.00;;
14907;SDS011;7545;52.092;7.006;2023-09-12T08:33:05;18.67;;;12.73;;
14907;SDS011;7545;52.092;7.006;2023-09-12T08:35:31;14.52;;;11.85;;
14907;SDS011;7545;52.092;7.006;2023-09-12T08:37:57;16.63;;;13.07;;
14907;SDS011;7545;52.092;7.006;2023-09-12T08:40:23;17.70;;;11.82;;
14907;SDS011;7545;52.092;7.006;2023-09-12T08:42:49;13.80;;;11.68;;
14907;SDS011;7545;52.092;7.006;2023-09-12T08:45:17;16.30;;;11.85;;
14907;SDS011;7545;52.092;7.006;2023-09-12T08:47:45;15.75;;;12.07;;
14907;SDS011;7545;52.092;7.006;2023-09-12T08:50:14;16.65;;;12.23;;
14907;SDS011;7545;52.092;7.006;2023-09-12T08:52:45;17.52;;;12.50;;
14907;SDS011;7545;52.092;7.006;2023-09-12T08:55:11;18.58;;;12.00;;
14907;SDS011;7545;52.092;7.006;2023-09-12T08:57:38;15.32;;;12.27;;
14907;SDS011;7545;52.092;7.006;2023-09-12T09:00:05;17.13;;;13.15;;
14907;SDS011;7545;52.092;7.006;2023-09-12T09:02:33;17.48;;;12.73;;
14907;SDS011;7545;52.092;7.006;2023-09-12T09:05:00;15.80;;;13.32;;
14907;SDS011;7545;52.092;7.006;2023-09-12T09:07:30;18.20;;;12.73;;
14907;SDS011;7545;52.092;7.006;2023-09-12T09:10:04;16.98;;;12.85;;
14907;SDS011;7545;52.092;7.006;2023-09-12T09:12:31;17.73;;;12.55;;
14907;SDS011;7545;52.092;7.006;2023-09-12T09:14:57;15.90;;;11.93;;
14907;SDS011;7545;52.092;7.006;2023-09-12T09:17:23;19.42;;;12.95;;
14907;SDS011;7545;52.092;7.006;2023-09-12T09:19:49;16.95;;;12.93;;
14907;SDS011;7545;52.092;7.006;2023-09-12T09:22:15;18.98;;;11.88;;
14907;SDS011;7545;52.092;7.006;2023-09-12T09:24:41;30.05;;;15.07;;
14907;SDS011;7545;52.092;7.006;2023-09-12T09:27:06;52.15;;;28.02;;
14907;SDS011;7545;52.092;7.006;2023-09-12T09:29:32;75.93;;;35.47;;
14907;SDS011;7545;52.092;7.006;2023-09-12T09:32:16;74.32;;;34.35;;
14907;SDS011;7545;52.092;7.006;2023-09-12T09:34:43;62.92;;;31.70;;
14907;SDS011;7545;52.092;7.006;2023-09-12T09:37:08;67.28;;;32.83;;
14907;SDS011;7545;52.092;7.006;2023-09-12T09:39:34;61.17;;;34.53;;
14907;SDS011;7545;52.092;7.006;2023-09-12T09:42:00;78.30;;;39.38;;
14907;SDS011;7545;52.092;7.006;2023-09-12T09:44:26;76.75;;;37.15;;
14907;SDS011;7545;52.092;7.006;2023-09-12T09:46:59;73.13;;;39.03;;
14907;SDS011;7545;52.092;7.006;2023-09-12T09:49:27;40.70;;;24.63;;
14907;SDS011;7545;52.092;7.006;2023-09-12T09:51:55;36.20;;;20.02;;
14907;SDS011;7545;52.092;7.006;2023-09-12T09:54:24;29.08;;;17.45;;
14907;SDS011;7545;52.092;7.006;2023-09-12T09:56:53;26.45;;;16.40;;
14907;SDS011;7545;52.092;7.006;2023-09-12T09:59:23;25.23;;;16.65;;
14907;SDS011;7545;52.092;7.006;2023-09-12T10:01:50;22.70;;;16.02;;
14907;SDS011;7545;52.092;7.006;2023-09-12T10:04:20;16.67;;;11.95;;
14907;SDS011;7545;52.092;7.006;2023-09-12T10:06:47;16.33;;;12.05;;
14907;SDS011;7545;52.092;7.006;2023-09-12T10:09:14;14.38;;;11.43;;
14907;SDS011;7545;52.092;7.006;2023-09-12T10:11:42;13.27;;;11.35;;
14907;SDS011;7545;52.092;7.006;2023-09-12T10:14:11;16.08;;;11.50;;
14907;SDS011;7545;52.092;7.006;2023-09-12T10:19:18;15.27;;;10.68;;
14907;SDS011;7545;52.092;7.006;2023-09-12T10:24:42;14.35;;;10.52;;
14907;SDS011;7545;52.092;7.006;2023-09-12T10:27:09;12.55;;;10.77;;
14907;SDS011;7545;52.092;7.006;2023-09-12T10:29:36;12.18;;;10.02;;
14907;SDS011;7545;52.092;7.006;2023-09-12T10:32:01;12.57;;;9.60;;
14907;SDS011;7545;52.092;7.006;2023-09-12T10:34:27;15.95;;;11.95;;
14907;SDS011;7545;52.092;7.006;2023-09-12T10:36:57;26.42;;;18.88;;
14907;SDS011;7545;52.092;7.006;2023-09-12T10:39:24;23.67;;;15.57;;
14907;SDS011;7545;52.092;7.006;2023-09-12T10:41:53;18.17;;;11.63;;
14907;SDS011;7545;52.092;7.006;2023-09-12T10:44:20;14.07;;;10.73;;
14907;SDS011;7545;52.092;7.006;2023-09-12T10:46:46;13.77;;;9.82;;
14907;SDS011;7545;52.092;7.006;2023-09-12T10:49:14;12.32;;;10.32;;
14907;SDS011;7545;52.092;7.006;2023-09-12T10:51:41;11.35;;;9.80;;
14907;SDS011;7545;52.092;7.006;2023-09-12T10:54:08;11.57;;;9.63;;
14907;SDS011;7545;52.092;7.006;2023-09-12T10:56:37;13.88;;;9.18;;
14907;SDS011;7545;52.092;7.006;2023-09-12T11:01:29;10.88;;;8.32;;
14907;SDS011;7545;52.092;7.006;2023-09-12T11:03:55;11.13;;;8.60;;
14907;SDS011;7545;52.092;7.006;2023-09-12T11:06:30;13.82;;;9.23;;
14907;SDS011;7545;52.092;7.006;2023-09-12T11:11:46;10.52;;;8.02;;
14907;SDS011;7545;52.092;7.006;2023-09-12T11:14:13;9.07;;;8.18;;
14907;SDS011;7545;52.092;7.006;2023-09-12T11:16:40;9.02;;;8.00;;
14907;SDS011;7545;52.092;7.006;2023-09-12T11:19:16;11.68;;;8.00;;
14907;SDS011;7545;52.092;7.006;2023-09-12T11:21:44;10.75;;;8.10;;
14907;SDS011;7545;52.092;7.006;2023-09-12T11:24:10;10.82;;;8.40;;
14907;SDS011;7545;52.092;7.006;2023-09-12T11:26:52;8.85;;;7.10;;
14907;SDS011;7545;52.092;7.006;2023-09-12T11:29:18;7.72;;;6.22;;
14907;SDS011;7545;52.092;7.006;2023-09-12T11:31:51;10.02;;;7.45;;
14907;SDS011;7545;52.092;7.006;2023-09-12T11:34:23;10.35;;;7.72;;
14907;SDS011;7545;52.092;7.006;2023-09-12T11:36:51;6.28;;;5.57;;
14907;SDS011;7545;52.092;7.006;2023-09-12T11:39:26;10.75;;;6.63;;
14907;SDS011;7545;52.092;7.006;2023-09-12T11:41:55;6.30;;;5.32;;
14907;SDS011;7545;52.092;7.006;2023-09-12T11:44:21;11.10;;;9.25;;
14907;SDS011;7545;52.092;7.006;2023-09-12T11:46:48;9.23;;;7.57;;
14907;SDS011;7545;52.092;7.006;2023-09-12T11:49:15;8.43;;;6.47;;
14907;SDS011;7545;52.092;7.006;2023-09-12T11:51:48;11.10;;;7.65;;
14907;SDS011;7545;52.092;7.006;2023-09-12T11:54:18;7.28;;;6.57;;
14907;SDS011;7545;52.092;7.006;2023-09-12T11:56:48;6.35;;;4.85;;
14907;SDS011;7545;52.092;7.006;2023-09-12T11:59:14;5.68;;;5.05;;
14907;SDS011;7545;52.092;7.006;2023-09-12T12:01:43;5.13;;;4.45;;
14907;SDS011;7545;52.092;7.006;2023-09-12T12:04:09;6.85;;;4.78;;
14907;SDS011;7545;52.092;7.006;2023-09-12T12:06:35;6.38;;;4.82;;
14907;SDS011;7545;52.092;7.006;2023-09-12T12:09:02;5.00;;;4.20;;
14907;SDS011;7545;52.092;7.006;2023-09-12T12:11:29;7.15;;;5.20;;
14907;SDS011;7545;52.092;7.006;2023-09-12T12:13:56;4.82;;;4.32;;
14907;SDS011;7545;52.092;7.006;2023-09-12T12:16:21;6.10;;;4.78;;
14907;SDS011;7545;52.092;7.006;2023-09-12T12:18:47;5.95;;;4.30;;
14907;SDS011;7545;52.092;7.006;2023-09-12T12:21:12;7.50;;;5.82;;
14907;SDS011;7545;52.092;7.006;2023-09-12T12:23:39;7.22;;;5.65;;
14907;SDS011;7545;52.092;7.006;2023-09-12T12:26:07;6.43;;;5.00;;
14907;SDS011;7545;52.092;7.006;2023-09-12T12:28:34;5.15;;;4.57;;
14907;SDS011;7545;52.092;7.006;2023-09-12T12:31:00;6.55;;;4.43;;
14907;SDS011;7545;52.092;7.006;2023-09-12T12:33:26;5.75;;;5.05;;
14907;SDS011;7545;52.092;7.006;2023-09-12T12:36:04;8.63;;;5.07;;
14907;SDS011;7545;52.092;7.006;2023-09-12T12:38:36;5.47;;;4.72;;
14907;SDS011;7545;52.092;7.006;2023-09-12T12:41:02;5.95;;;5.03;;
14907;SDS011;7545;52.092;7.006;2023-09-12T12:43:28;5.70;;;5.10;;
14907;SDS011;7545;52.092;7.006;2023-09-12T12:45:55;5.65;;;4.57;;
14907;SDS011;7545;52.092;7.006;2023-09-12T12:48:29;6.47;;;4.55;;
14907;SDS011;7545;52.092;7.006;2023-09-12T12:50:56;5.80;;;4.05;;
14907;SDS011;7545;52.092;7.006;2023-09-12T12:53:38;3.60;;;3.20;;
14907;SDS011;7545;52.092;7.006;2023-09-12T12:56:08;5.68;;;3.83;;
14907;SDS011;7545;52.092;7.006;2023-09-12T12:58:33;6.90;;;3.92;;
14907;SDS011;7545;52.092;7.006;2023-09-12T13:01:00;3.63;;;3.10;;
14907;SDS011;7545;52.092;7.006;2023-09-12T13:03:26;4.85;;;4.13;;
14907;SDS011;7545;52.092;7.006;2023-09-12T13:05:51;5.30;;;4.18;;
14907;SDS011;7545;52.092;7.006;2023-09-12T13:08:17;5.97;;;3.92;;
14907;SDS011;7545;52.092;7.006;2023-09-12T13:10:43;6.47;;;3.95;;
14907;SDS011;7545;52.092;7.006;2023-09-12T13:13:09;5.03;;;4.53;;
14907;SDS011;7545;52.092;7.006;2023-09-12T13:15:35;5.80;;;3.92;;
14907;SDS011;7545;52.092;7.006;2023-09-12T13:18:00;5.10;;;3.65;;
14907;SDS011;7545;52.092;7.006;2023-09-12T13:20:26;5.22;;;3.28;;
14907;SDS011;7545;52.092;7.006;2023-09-12T13:22:51;4.80;;;4.13;;
14907;SDS011;7545;52.092;7.006;2023-09-12T13:25:17;4.95;;;3.38;;
14907;SDS011;7545;52.092;7.006;2023-09-12T13:27:43;4.95;;;3.63;;
14907;SDS011;7545;52.092;7.006;2023-09-12T13:30:08;6.07;;;4.30;;
14907;SDS011;7545;52.092;7.006;2023-09-12T13:32:35;4.72;;;4.00;;
14907;SDS011;7545;52.092;7.006;2023-09-12T13:35:00;4.57;;;3.22;;
14907;SDS011;7545;52.092;7.006;2023-09-12T13:37:26;5.30;;;2.90;;
14907;SDS011;7545;52.092;7.006;2023-09-12T13:39:52;6.78;;;3.97;;
14907;SDS011;7545;52.092;7.006;2023-09-12T13:42:18;5.45;;;3.72;;
14907;SDS011;7545;52.092;7.006;2023-09-12T13:44:45;7.82;;;4.03;;
14907;SDS011;7545;52.092;7.006;2023-09-12T13:47:12;9.27;;;4.18;;
14907;SDS011;7545;52.092;7.006;2023-09-12T13:49:37;5.57;;;3.90;;
14907;SDS011;7545;52.092;7.006;2023-09-12T13:52:03;7.13;;;3.50;;
14907;SDS011;7545;52.092;7.006;2023-09-12T13:54:29;4.55;;;3.53;;
14907;SDS011;7545;52.092;7.006;2023-09-12T13:56:55;4.03;;;3.30;;
14907;SDS011;7545;52.092;7.006;2023-09-12T13:59:21;5.70;;;3.92;;
14907;SDS011;7545;52.092;7.006;2023-09-12T14:01:46;6.05;;;3.53;;
14907;SDS011;7545;52.092;7.006;2023-09-12T14:04:12;6.45;;;3.35;;
14907;SDS011;7545;52.092;7.006;2023-09-12T14:06:38;4.45;;;3.25;;
14907;SDS011;7545;52.092;7.006;2023-09-12T14:09:04;4.15;;;3.28;;
14907;SDS011;7545;52.092;7.006;2023-09-12T14:11:30;4.55;;;3.55;;
14907;SDS011;7545;52.092;7.006;2023-09-12T14:13:56;9.25;;;3.38;;
14907;SDS011;7545;52.092;7.006;2023-09-12T14:16:21;3.67;;;3.17;;
14907;SDS011;7545;52.092;7.006;2023-09-12T14:18:47;5.03;;;4.13;;
14907;SDS011;7545;52.092;7.006;2023-09-12T14:21:12;5.30;;;3.65;;
14907;SDS011;7545;52.092;7.006;2023-09-12T14:23:38;4.25;;;3.35;;
14907;SDS011;7545;52.092;7.006;2023-09-12T14:26:03;5.20;;;3.42;;
14907;SDS011;7545;52.092;7.006;2023-09-12T14:28:29;4.60;;;3.25;;
14907;SDS011;7545;52.092;7.006;2023-09-12T14:30:57;5.53;;;3.63;;
14907;SDS011;7545;52.092;7.006;2023-09-12T14:33:22;3.67;;;3.10;;
14907;SDS011;7545;52.092;7.006;2023-09-12T14:35:48;4.38;;;3.42;;
14907;SDS011;7545;52.092;7.006;2023-09-12T14:38:14;5.03;;;3.60;;
14907;SDS011;7545;52.092;7.006;2023-09-12T14:40:39;3.38;;;2.90;;
14907;SDS011;7545;52.092;7.006;2023-09-12T14:43:05;3.30;;;3.00;;
14907;SDS011;7545;52.092;7.006;2023-09-12T14:45:32;8.95;;;3.47;;
14907;SDS011;7545;52.092;7.006;2023-09-12T14:47:58;5.38;;;3.28;;
14907;SDS011;7545;52.092;7.006;2023-09-12T14:50:24;3.97;;;3.03;;
14907;SDS011;7545;52.092;7.006;2023-09-12T14:52:50;4.93;;;3.38;;
14907;SDS011;7545;52.092;7.006;2023-09-12T14:55:16;4.82;;;3.30;;
14907;SDS011;7545;52.092;7.006;2023-09-12T14:57:42;4.55;;;3.72;;
14907;SDS011;7545;52.092;7.006;2023-09-12T15:00:07;4.28;;;3.88;;